createdAt,value
2022-10-29T00:01:43.131Z,17.50
2022-10-29T00:04:11.107Z,17.50
2022-10-29T00:06:39.229Z,17.60
2022-10-29T00:09:07.441Z,17.60
2022-10-29T00:11:35.488Z,17.60
2022-10-29T00:14:06.047Z,17.60
2022-10-29T00:16:38.089Z,17.70
2022-10-29T00:19:06.841Z,17.60
2022-10-29T00:21:34.826Z,17.60
2022-10-29T00:24:02.670Z,17.60
2022-10-29T00:26:31.079Z,17.60
2022-10-29T00:28:59.151Z,17.50
2022-10-29T00:31:27.217Z,17.50
2022-10-29T00:33:56.581Z,17.40
2022-10-29T00:36:26.243Z,17.30
2022-10-29T00:38:54.180Z,17.30
2022-10-29T00:41:23.108Z,17.20
2022-10-29T00:43:51.978Z,17.20
2022-10-29T00:46:23.108Z,17.20
2022-10-29T00:48:52.034Z,17.20
2022-10-29T00:51:21.840Z,17.20
2022-10-29T00:53:51.438Z,17.30
2022-10-29T00:56:19.457Z,17.30
2022-10-29T00:58:47.746Z,17.30
2022-10-29T01:01:15.632Z,17.30
2022-10-29T01:03:43.729Z,17.30
2022-10-29T01:06:12.322Z,17.20
2022-10-29T01:08:41.701Z,17.20
2022-10-29T01:11:15.767Z,17.10
2022-10-29T01:13:49.672Z,17.00
2022-10-29T01:16:22.871Z,16.80
2022-10-29T01:18:55.395Z,16.70
2022-10-29T01:21:40.523Z,16.60
2022-10-29T01:24:26.287Z,16.50
2022-10-29T01:27:06.957Z,16.40
2022-10-29T01:29:42.464Z,16.30
2022-10-29T01:32:13.205Z,16.30
2022-10-29T01:34:44.678Z,16.20
2022-10-29T01:37:16.017Z,16.10
2022-10-29T01:39:46.023Z,16.00
2022-10-29T01:42:15.638Z,15.90
2022-10-29T01:44:46.617Z,15.90
2022-10-29T01:47:17.114Z,15.80
2022-10-29T01:49:46.443Z,15.70
2022-10-29T01:52:16.019Z,15.60
2022-10-29T01:54:44.538Z,15.50
2022-10-29T01:57:27.285Z,15.40
2022-10-29T01:59:56.359Z,15.30
2022-10-29T02:02:29.341Z,15.20
2022-10-29T02:05:03.813Z,15.20
2022-10-29T02:07:35.923Z,15.20
2022-10-29T02:10:08.631Z,15.10
2022-10-29T02:12:40.170Z,15.00
2022-10-29T02:15:10.306Z,15.00
2022-10-29T02:17:39.518Z,15.00
2022-10-29T02:20:08.479Z,14.90
2022-10-29T02:22:36.471Z,14.80
2022-10-29T02:25:04.868Z,14.80
2022-10-29T02:27:32.750Z,14.70
2022-10-29T02:30:00.700Z,14.60
2022-10-29T02:32:28.656Z,14.60
2022-10-29T02:34:57.863Z,14.50
2022-10-29T02:37:25.688Z,14.40
2022-10-29T02:39:53.555Z,14.40
2022-10-29T02:42:21.381Z,14.40
2022-10-29T02:44:49.231Z,14.30
2022-10-29T02:47:17.202Z,14.30
2022-10-29T02:49:45.111Z,14.30
2022-10-29T02:52:16.151Z,14.30
2022-10-29T02:54:44.468Z,14.30
2022-10-29T02:57:12.394Z,14.30
2022-10-29T02:59:40.241Z,14.40
2022-10-29T03:02:08.166Z,14.40
2022-10-29T03:04:36.191Z,14.50
2022-10-29T03:07:04.013Z,14.50
2022-10-29T03:09:33.198Z,14.60
2022-10-29T03:12:01.097Z,14.60
2022-10-29T03:14:28.985Z,14.60
2022-10-29T03:16:56.858Z,14.60
2022-10-29T03:19:24.675Z,14.50
2022-10-29T03:21:52.608Z,14.40
2022-10-29T03:24:20.538Z,14.40
2022-10-29T03:26:49.858Z,14.30
2022-10-29T03:29:17.703Z,14.20
2022-10-29T03:31:45.641Z,14.10
2022-10-29T03:34:13.525Z,14.00
2022-10-29T03:36:41.368Z,13.90
2022-10-29T03:39:09.245Z,13.80
2022-10-29T03:41:37.668Z,13.70
2022-10-29T03:44:06.998Z,13.70
2022-10-29T03:46:35.056Z,13.70
2022-10-29T03:49:03.602Z,13.70
2022-10-29T03:51:31.605Z,13.60
2022-10-29T03:53:59.452Z,13.60
2022-10-29T03:56:27.336Z,13.60
2022-10-29T03:58:55.428Z,13.50
2022-10-29T04:01:24.903Z,13.40
2022-10-29T04:03:52.862Z,13.30
2022-10-29T04:06:20.798Z,13.30
2022-10-29T04:08:48.704Z,13.30
2022-10-29T04:11:16.506Z,13.30
2022-10-29T04:13:44.314Z,13.30
2022-10-29T04:16:12.139Z,13.30
2022-10-29T04:18:41.440Z,13.30
2022-10-29T04:29:33.343Z,13.40
2022-10-29T04:32:01.171Z,13.50
2022-10-29T04:34:30.377Z,13.50
2022-10-29T04:36:58.241Z,13.50
2022-10-29T04:39:26.106Z,13.60
2022-10-29T04:41:53.961Z,13.60
2022-10-29T04:44:21.857Z,13.60
2022-10-29T04:46:49.709Z,13.70
2022-10-29T04:49:17.677Z,13.70
2022-10-29T04:51:46.937Z,13.70
2022-10-29T04:54:15.554Z,13.80
2022-10-29T04:56:43.587Z,13.80
2022-10-29T04:59:11.351Z,13.90
2022-10-29T05:01:39.166Z,14.00
2022-10-29T05:04:07.226Z,14.00
2022-10-29T05:06:35.152Z,14.00
2022-10-29T05:09:04.521Z,14.00
2022-10-29T05:11:32.341Z,14.10
2022-10-29T05:14:00.267Z,14.20
2022-10-29T05:16:28.049Z,14.30
2022-10-29T05:18:55.850Z,14.30
2022-10-29T05:21:23.691Z,14.40
2022-10-29T05:23:51.517Z,14.40
2022-10-29T05:26:20.680Z,14.50
2022-10-29T05:28:50.274Z,14.50
2022-10-29T05:31:18.451Z,14.60
2022-10-29T05:33:46.358Z,14.70
2022-10-29T05:36:14.147Z,14.70
2022-10-29T05:38:41.940Z,14.70
2022-10-29T05:41:09.910Z,14.80
2022-10-29T05:43:39.119Z,14.80
2022-10-29T05:46:06.963Z,14.90
2022-10-29T05:48:34.864Z,14.90
2022-10-29T05:51:02.701Z,14.80
2022-10-29T05:53:30.570Z,14.80
2022-10-29T05:55:59.347Z,14.80
2022-10-29T05:58:27.150Z,14.70
2022-10-29T06:00:56.452Z,14.80
2022-10-29T06:03:24.375Z,14.70
2022-10-29T06:05:52.266Z,14.70
2022-10-29T06:08:20.154Z,14.70
2022-10-29T06:10:48.110Z,14.60
2022-10-29T06:13:18.022Z,14.60
2022-10-29T06:15:46.309Z,14.50
2022-10-29T06:18:15.861Z,14.50
2022-10-29T06:20:44.435Z,14.60
2022-10-29T06:23:12.532Z,14.60
2022-10-29T06:25:40.498Z,14.50
2022-10-29T06:28:09.918Z,14.50
2022-10-29T06:30:38.000Z,14.50
2022-10-29T06:33:06.223Z,14.60
2022-10-29T06:38:07.804Z,14.80
2022-10-29T06:40:40.332Z,14.90
2022-10-29T06:43:09.195Z,14.90
2022-10-29T06:45:37.154Z,15.00
2022-10-29T06:48:06.043Z,15.00
2022-10-29T06:50:35.430Z,15.00
2022-10-29T06:53:10.957Z,15.00
2022-10-29T06:55:38.955Z,15.10
2022-10-29T06:58:07.622Z,15.20
2022-10-29T07:00:36.169Z,15.20
2022-10-29T07:03:04.957Z,15.30
2022-10-29T07:05:33.197Z,15.40
2022-10-29T07:08:02.616Z,15.50
2022-10-29T07:10:31.312Z,15.50
2022-10-29T07:12:59.542Z,15.60
2022-10-29T07:15:30.271Z,15.60
2022-10-29T07:17:59.501Z,15.70
2022-10-29T07:20:27.800Z,15.60
2022-10-29T07:22:57.676Z,15.60
2022-10-29T07:25:27.247Z,15.80
2022-10-29T07:27:55.900Z,15.90
2022-10-29T07:30:24.366Z,15.90
2022-10-29T07:32:52.391Z,15.90
2022-10-29T07:35:20.296Z,16.00
2022-10-29T07:37:49.942Z,16.10
2022-10-29T07:40:17.909Z,16.00
2022-10-29T07:42:47.111Z,16.00
2022-10-29T07:45:15.071Z,16.10
2022-10-29T07:47:43.079Z,16.20
2022-10-29T07:50:11.233Z,16.20
2022-10-29T07:52:39.173Z,16.30
2022-10-29T07:55:07.412Z,16.50
2022-10-29T07:57:35.362Z,16.60
2022-10-29T08:00:04.751Z,16.80
2022-10-29T08:02:40.015Z,17.10
2022-10-29T08:05:08.357Z,17.30
2022-10-29T08:07:36.266Z,17.60
2022-10-29T08:10:04.127Z,17.90
2022-10-29T08:12:31.944Z,18.10
2022-10-29T08:14:59.930Z,18.30
2022-10-29T08:17:31.644Z,18.50
2022-10-29T08:19:59.547Z,18.60
2022-10-29T08:22:27.472Z,18.70
2022-10-29T08:24:55.448Z,18.90
2022-10-29T08:27:23.283Z,19.00
2022-10-29T08:29:51.158Z,19.00
2022-10-29T08:32:19.058Z,19.10
2022-10-29T08:34:48.364Z,19.20
2022-10-29T08:37:18.063Z,19.20
2022-10-29T08:39:45.866Z,19.20
2022-10-29T08:42:22.849Z,19.30
2022-10-29T08:44:59.424Z,19.40
2022-10-29T08:47:27.344Z,19.60
2022-10-29T08:50:03.473Z,19.80
2022-10-29T08:52:34.963Z,20.00
2022-10-29T08:55:06.920Z,20.10
2022-10-29T08:57:38.356Z,20.20
2022-10-29T09:02:36.610Z,20.50
2022-10-29T09:05:06.345Z,20.60
2022-10-29T09:07:49.134Z,20.60
2022-10-29T09:10:21.180Z,20.50
2022-10-29T09:12:53.645Z,20.50
2022-10-29T09:15:39.728Z,20.50
2022-10-29T09:18:17.206Z,20.50
2022-10-29T09:20:52.885Z,20.40
2022-10-29T09:23:25.808Z,20.40
2022-10-29T09:25:56.414Z,20.30
2022-10-29T09:28:29.055Z,20.40
2022-10-29T09:31:06.166Z,20.40
2022-10-29T09:33:34.093Z,20.50
2022-10-29T09:36:03.505Z,20.50
2022-10-29T09:38:33.730Z,20.60
2022-10-29T09:41:02.698Z,20.50
2022-10-29T09:43:35.989Z,20.50
2022-10-29T09:46:08.004Z,20.50
2022-10-29T09:48:38.202Z,20.50
2022-10-29T09:51:14.834Z,20.80
2022-10-29T09:53:42.861Z,20.90
2022-10-29T09:56:10.921Z,21.10
2022-10-29T09:58:41.605Z,21.30
2022-10-29T10:01:09.536Z,21.50
2022-10-29T10:03:41.817Z,21.60
2022-10-29T10:06:10.360Z,21.70
2022-10-29T10:09:00.640Z,21.90
2022-10-29T10:11:31.329Z,22.10
2022-10-29T10:14:00.467Z,22.50
2022-10-29T10:16:29.524Z,22.90
2022-10-29T10:18:57.365Z,23.40
2022-10-29T10:21:25.920Z,24.20
2022-10-29T10:23:57.535Z,25.40
2022-10-29T10:26:29.702Z,27.50
2022-10-29T10:29:14.861Z,29.00
2022-10-29T10:31:43.737Z,29.60
2022-10-29T10:34:16.274Z,29.80
2022-10-29T10:36:45.431Z,29.80
2022-10-29T10:39:21.104Z,29.60
2022-10-29T10:41:50.171Z,29.60
2022-10-29T10:44:19.860Z,29.60
2022-10-29T10:46:48.335Z,29.70
2022-10-29T10:49:18.099Z,29.70
2022-10-29T10:51:47.412Z,29.60
2022-10-29T10:54:27.067Z,29.30
2022-10-29T10:56:58.458Z,29.00
2022-10-29T10:59:28.377Z,29.00
2022-10-29T11:01:56.786Z,28.70
2022-10-29T11:04:27.787Z,28.60
2022-10-29T11:06:56.605Z,28.50
2022-10-29T11:09:27.969Z,28.30
2022-10-29T11:11:59.123Z,28.30
2022-10-29T11:14:28.858Z,28.40
2022-10-29T11:16:57.451Z,28.60
2022-10-29T11:19:28.514Z,28.70
2022-10-29T11:22:02.290Z,28.70
2022-10-29T11:24:37.865Z,28.70
2022-10-29T11:27:07.525Z,28.80
2022-10-29T11:29:39.897Z,28.90
2022-10-29T11:32:12.591Z,28.80
2022-10-29T11:34:44.355Z,28.80
2022-10-29T11:37:15.445Z,29.20
2022-10-29T11:39:48.458Z,29.40
2022-10-29T11:42:16.335Z,29.90
2022-10-29T11:44:44.273Z,30.50
2022-10-29T11:47:21.122Z,30.70
2022-10-29T11:49:55.766Z,30.70
2022-10-29T11:52:33.251Z,30.40
2022-10-29T11:55:11.630Z,30.20
2022-10-29T11:57:43.445Z,29.80
2022-10-29T12:00:14.738Z,29.20
2022-10-29T12:03:03.430Z,28.80
2022-10-29T12:05:36.139Z,28.30
2022-10-29T12:08:10.884Z,27.90
2022-10-29T12:10:45.659Z,27.50
2022-10-29T12:13:17.784Z,27.00
2022-10-29T12:15:48.061Z,26.70
2022-10-29T12:18:23.307Z,26.40
2022-10-29T12:20:55.092Z,26.20
2022-10-29T12:23:26.193Z,26.10
2022-10-29T12:26:02.637Z,25.90
2022-10-29T12:28:38.988Z,25.70
2022-10-29T12:31:09.898Z,25.50
2022-10-29T12:33:42.079Z,25.30
2022-10-29T12:36:13.028Z,25.20
2022-10-29T12:38:42.424Z,25.10
2022-10-29T12:41:15.168Z,25.10
2022-10-29T12:43:43.631Z,25.00
2022-10-29T12:46:20.826Z,25.00
2022-10-29T12:49:02.501Z,24.90
2022-10-29T12:51:35.613Z,24.80
2022-10-29T12:54:13.894Z,24.70
2022-10-29T12:56:46.315Z,24.60
2022-10-29T12:59:31.331Z,24.60
2022-10-29T13:02:15.234Z,24.70
2022-10-29T13:05:09.992Z,24.80
2022-10-29T13:08:00.031Z,25.00
2022-10-29T13:10:41.250Z,25.10
2022-10-29T13:13:20.005Z,25.30
2022-10-29T13:15:49.104Z,25.50
2022-10-29T13:18:21.409Z,25.60
2022-10-29T13:20:50.579Z,25.80
2022-10-29T13:23:34.891Z,26.00
2022-10-29T13:26:03.364Z,26.10
2022-10-29T13:28:51.216Z,26.20
2022-10-29T13:31:37.694Z,26.20
2022-10-29T13:34:08.337Z,26.10
2022-10-29T13:36:37.634Z,25.60
2022-10-29T13:39:19.007Z,25.10
2022-10-29T13:41:51.162Z,25.00
2022-10-29T13:44:21.346Z,25.00
2022-10-29T13:46:52.763Z,25.00
2022-10-29T13:49:23.199Z,25.00
2022-10-29T13:51:53.611Z,25.00
2022-10-29T13:56:57.725Z,25.20
2022-10-29T13:59:30.132Z,25.30
2022-10-29T14:02:13.027Z,25.30
2022-10-29T14:04:43.188Z,25.30
2022-10-29T14:07:15.039Z,25.40
2022-10-29T14:09:45.409Z,25.40
2022-10-29T14:12:16.429Z,25.50
2022-10-29T14:14:49.799Z,25.50
2022-10-29T14:17:18.606Z,25.50
2022-10-29T14:19:47.259Z,25.40
2022-10-29T14:22:33.390Z,25.40
2022-10-29T14:25:03.446Z,25.30
2022-10-29T14:27:31.292Z,25.30
2022-10-29T14:30:19.209Z,25.10
2022-10-29T14:32:47.432Z,24.90
2022-10-29T14:35:16.599Z,24.80
2022-10-29T14:37:45.133Z,24.70
2022-10-29T14:40:17.738Z,24.60
2022-10-29T14:42:47.195Z,24.40
2022-10-29T14:45:18.578Z,24.20
2022-10-29T14:47:49.850Z,24.10
2022-10-29T14:50:19.676Z,24.00
2022-10-29T14:52:53.597Z,23.80
2022-10-29T14:55:25.202Z,23.70
2022-10-29T14:58:00.057Z,23.60
2022-10-29T15:00:30.003Z,23.50
2022-10-29T15:02:58.477Z,23.30
2022-10-29T15:05:27.861Z,23.20
2022-10-29T15:08:05.799Z,23.10
2022-10-29T15:10:45.238Z,22.90
2022-10-29T15:13:20.654Z,22.70
2022-10-29T15:15:53.892Z,22.50
2022-10-29T15:18:22.775Z,22.30
2022-10-29T15:20:51.595Z,22.20
2022-10-29T15:23:21.190Z,22.10
2022-10-29T15:25:51.917Z,21.80
2022-10-29T15:28:22.821Z,21.70
2022-10-29T15:30:50.837Z,21.60
2022-10-29T15:33:21.596Z,21.40
2022-10-29T15:35:51.751Z,21.40
2022-10-29T15:38:52.809Z,21.30
2022-10-29T15:41:37.592Z,21.10
2022-10-29T15:44:26.646Z,21.00
2022-10-29T15:46:58.925Z,20.80
2022-10-29T15:49:29.803Z,20.70
2022-10-29T15:52:00.884Z,20.60
2022-10-29T15:54:29.162Z,20.50
2022-10-29T15:56:58.373Z,20.30
2022-10-29T15:59:27.127Z,20.20
2022-10-29T16:01:55.159Z,20.10
2022-10-29T16:04:23.115Z,20.00
2022-10-29T16:06:51.074Z,19.80
2022-10-29T16:09:20.013Z,19.70
2022-10-29T16:11:49.837Z,19.50
2022-10-29T16:14:19.087Z,19.40
2022-10-29T16:16:46.985Z,19.20
2022-10-29T16:19:14.881Z,19.00
2022-10-29T16:21:43.063Z,18.80
2022-10-29T16:24:13.970Z,18.70
2022-10-29T16:26:41.843Z,18.50
2022-10-29T16:29:09.754Z,18.40
2022-10-29T16:31:38.986Z,18.30
2022-10-29T16:34:07.746Z,18.20
2022-10-29T16:36:35.627Z,18.10
2022-10-29T16:39:03.519Z,18.00
2022-10-29T16:41:31.680Z,18.00
2022-10-29T16:43:59.638Z,17.90
2022-10-29T16:46:27.708Z,17.70
2022-10-29T16:48:56.919Z,17.60
2022-10-29T16:51:24.913Z,17.50
2022-10-29T16:53:53.532Z,17.40
2022-10-29T16:56:21.475Z,17.40
2022-10-29T16:58:49.406Z,17.30
2022-10-29T17:01:17.653Z,17.20
2022-10-29T17:03:45.893Z,17.10
2022-10-29T17:06:15.347Z,17.10
2022-10-29T17:08:43.383Z,17.00
2022-10-29T17:11:11.552Z,16.90
2022-10-29T17:13:39.448Z,16.90
2022-10-29T17:16:07.830Z,16.80
2022-10-29T17:18:35.802Z,16.70
2022-10-29T17:21:03.952Z,16.60
2022-10-29T17:23:33.906Z,16.60
2022-10-29T17:26:02.041Z,16.50
2022-10-29T17:28:30.223Z,16.50
2022-10-29T17:30:58.112Z,16.40
2022-10-29T17:33:26.273Z,16.40
2022-10-29T17:36:01.735Z,16.40
2022-10-29T17:38:29.666Z,16.30
2022-10-29T17:40:59.207Z,16.30
2022-10-29T17:43:27.186Z,16.20
2022-10-29T17:45:55.166Z,16.20
2022-10-29T17:48:25.076Z,16.20
2022-10-29T17:50:54.099Z,16.10
2022-10-29T17:53:22.557Z,16.00
2022-10-29T17:55:50.593Z,16.00
2022-10-29T17:58:20.593Z,15.90
2022-10-29T18:00:49.419Z,15.80
2022-10-29T18:03:17.409Z,15.80
2022-10-29T18:05:45.493Z,15.70
2022-10-29T18:08:13.529Z,15.70
2022-10-29T18:10:41.770Z,15.70
2022-10-29T18:13:10.065Z,15.70
2022-10-29T18:15:40.392Z,15.70
2022-10-29T18:18:08.750Z,15.60
2022-10-29T18:20:37.404Z,15.60
2022-10-29T18:23:05.280Z,15.50
2022-10-29T18:25:33.367Z,15.50
2022-10-29T18:28:01.307Z,15.50
2022-10-29T18:30:29.253Z,15.60
2022-10-29T18:32:59.166Z,15.50
2022-10-29T18:35:27.716Z,15.40
2022-10-29T18:37:56.151Z,15.40
2022-10-29T18:40:24.430Z,15.40
2022-10-29T18:42:52.992Z,15.40
2022-10-29T18:45:20.989Z,15.30
2022-10-29T18:47:49.224Z,15.40
2022-10-29T18:50:18.718Z,15.40
2022-10-29T18:52:46.756Z,15.40
2022-10-29T18:55:14.644Z,15.40
2022-10-29T18:57:42.578Z,15.20
2022-10-29T19:00:11.222Z,15.20
2022-10-29T19:02:39.171Z,15.20
2022-10-29T19:05:07.484Z,15.20
2022-10-29T19:07:36.730Z,15.10
2022-10-29T19:10:04.767Z,15.10
2022-10-29T19:12:32.692Z,15.00
2022-10-29T19:15:00.607Z,15.00
2022-10-29T19:17:28.668Z,15.00
2022-10-29T19:19:56.641Z,15.00
2022-10-29T19:22:24.647Z,14.90
2022-10-29T19:24:54.364Z,15.00
2022-10-29T19:27:22.406Z,15.00
2022-10-29T19:29:50.379Z,15.00
2022-10-29T19:32:18.371Z,14.90
2022-10-29T19:34:46.419Z,14.80
2022-10-29T19:37:14.398Z,14.70
2022-10-29T19:39:42.505Z,14.70
2022-10-29T19:42:11.792Z,14.60
2022-10-29T19:44:39.755Z,14.60
2022-10-29T19:47:07.755Z,14.50
2022-10-29T19:49:35.974Z,14.40
2022-10-29T19:52:03.881Z,14.40
2022-10-29T19:54:31.829Z,14.40
2022-10-29T19:56:59.795Z,14.40
2022-10-29T19:59:28.985Z,14.40
2022-10-29T20:01:56.999Z,14.50
2022-10-29T20:04:24.995Z,14.50
2022-10-29T20:06:53.001Z,14.50
2022-10-29T20:09:21.311Z,14.50
2022-10-29T20:11:49.375Z,14.50
2022-10-29T20:14:17.504Z,14.50
2022-10-29T20:16:47.167Z,14.50
2022-10-29T20:19:15.274Z,14.50
2022-10-29T20:21:43.340Z,14.60
2022-10-29T20:24:11.300Z,14.70
2022-10-29T20:26:39.166Z,14.70
2022-10-29T20:29:07.203Z,14.70
2022-10-29T20:31:40.088Z,14.60
2022-10-29T20:34:10.725Z,14.50
2022-10-29T20:36:38.754Z,14.50
2022-10-29T20:39:07.285Z,14.60
2022-10-29T20:41:35.565Z,14.60
2022-10-29T20:44:03.565Z,14.60
2022-10-29T20:46:31.560Z,14.50
2022-10-29T20:48:59.533Z,14.50
2022-10-29T20:51:32.172Z,14.50
2022-10-29T20:54:00.943Z,14.40
2022-10-29T20:56:29.011Z,14.40
2022-10-29T20:58:57.200Z,14.40
2022-10-29T21:01:25.940Z,14.30
2022-10-29T21:03:54.499Z,14.30
2022-10-29T21:06:22.610Z,14.30
2022-10-29T21:08:52.741Z,14.30
2022-10-29T21:11:21.844Z,14.30
2022-10-29T21:13:51.483Z,14.30
2022-10-29T21:16:20.692Z,14.30
2022-10-29T21:18:50.304Z,14.30
2022-10-29T21:21:18.454Z,14.40
2022-10-29T21:23:48.447Z,14.30
2022-10-29T21:26:18.774Z,14.30
2022-10-29T21:28:47.096Z,14.30
2022-10-29T21:31:15.158Z,14.30
2022-10-29T21:33:43.252Z,14.30
2022-10-29T21:36:13.155Z,14.30
2022-10-29T21:38:43.857Z,14.40
2022-10-29T21:41:12.335Z,14.30
2022-10-29T21:43:41.629Z,14.30
2022-10-29T21:46:09.484Z,14.20
2022-10-29T21:48:37.457Z,14.20
2022-10-29T21:51:10.911Z,14.20
2022-10-29T21:53:42.829Z,14.30
2022-10-29T21:56:12.991Z,14.30
2022-10-29T21:58:42.455Z,14.30
2022-10-29T22:01:11.560Z,14.40
2022-10-29T22:03:41.535Z,14.30
2022-10-29T22:06:12.115Z,14.30
2022-10-29T22:08:40.069Z,14.20
2022-10-29T22:11:08.343Z,14.20
2022-10-29T22:13:40.885Z,14.20
2022-10-29T22:16:12.336Z,14.20
2022-10-29T22:18:40.698Z,14.20
2022-10-29T22:21:09.366Z,14.20
2022-10-29T22:23:38.220Z,14.30
2022-10-29T22:26:06.282Z,14.30
2022-10-29T22:28:34.130Z,14.30
2022-10-29T22:31:02.693Z,14.30
2022-10-29T22:33:32.554Z,14.30
2022-10-29T22:36:11.249Z,14.40
2022-10-29T22:38:39.344Z,14.40
2022-10-29T22:41:08.886Z,14.30
2022-10-29T22:43:36.826Z,14.30
2022-10-29T22:46:05.616Z,14.30
2022-10-29T22:48:35.904Z,14.30
2022-10-29T22:51:06.164Z,14.30
2022-10-29T22:53:34.399Z,14.30
2022-10-29T22:56:02.382Z,14.30
2022-10-29T22:58:30.626Z,14.30
2022-10-29T23:01:02.336Z,14.20
2022-10-29T23:03:30.455Z,14.20
2022-10-29T23:06:00.214Z,14.20
2022-10-29T23:08:28.397Z,14.20
2022-10-29T23:10:57.248Z,14.10
2022-10-29T23:13:25.148Z,14.10
2022-10-29T23:15:53.971Z,14.00
2022-10-29T23:18:21.818Z,14.00
2022-10-29T23:20:49.814Z,14.00
2022-10-29T23:23:19.489Z,14.00
2022-10-29T23:25:48.054Z,14.00
2022-10-29T23:28:15.860Z,14.00
2022-10-29T23:30:43.779Z,14.00
2022-10-29T23:33:11.744Z,14.00
2022-10-29T23:35:40.399Z,13.90
2022-10-29T23:38:08.433Z,14.00
2022-10-29T23:40:46.207Z,14.00
2022-10-29T23:43:14.820Z,13.90
2022-10-29T23:45:44.467Z,13.90
2022-10-29T23:48:12.777Z,13.70
2022-10-29T23:50:41.030Z,13.60
2022-10-29T23:53:09.281Z,13.60
2022-10-29T23:55:37.222Z,13.60
2022-10-29T23:58:06.498Z,13.60
